sensor_id;sensor_type;location;lat;lon;timestamp;P1;durP1;ratioP1;P2;durP2;ratioP2
20423;SDS011;10371;49.042;8.002;2023-03-23T00:00:10;4.45;;;4.05;;
20423;SDS011;10371;49.042;8.002;2023-03-23T00:01:11;3.60;;;3.17;;
20423;SDS011;10371;49.042;8.002;2023-03-23T00:02:14;2.60;;;2.28;;
20423;SDS011;10371;49.042;8.002;2023-03-23T00:03:14;2.42;;;2.22;;
20423;SDS011;10371;49.042;8.002;2023-03-23T00:04:15;2.22;;;2.10;;
20423;SDS011;10371;49.042;8.002;2023-03-23T00:05:16;2.67;;;2.10;;
20423;SDS011;10371;49.042;8.002;2023-03-23T00:06:17;2.80;;;2.60;;
20423;SDS011;10371;49.042;8.002;2023-03-23T00:07:19;3.10;;;2.47;;
20423;SDS011;10371;49.042;8.002;2023-03-23T00:08:21;3.92;;;2.40;;
20423;SDS011;10371;49.042;8.002;2023-03-23T00:09:21;1.92;;;1.83;;
20423;SDS011;10371;49.042;8.002;2023-03-23T00:10:24;2.20;;;2.03;;
20423;SDS011;10371;49.042;8.002;2023-03-23T00:11:27;2.40;;;2.20;;
20423;SDS011;10371;49.042;8.002;2023-03-23T00:12:30;1.90;;;1.80;;
20423;SDS011;10371;49.042;8.002;2023-03-23T00:13:34;2.47;;;2.28;;
20423;SDS011;10371;49.042;8.002;2023-03-23T00:14:34;2.10;;;2.00;;
20423;SDS011;10371;49.042;8.002;2023-03-23T00:15:43;2.30;;;2.10;;
20423;SDS011;10371;49.042;8.002;2023-03-23T00:16:44;2.25;;;2.05;;
20423;SDS011;10371;49.042;8.002;2023-03-23T00:17:44;3.28;;;2.40;;
20423;SDS011;10371;49.042;8.002;2023-03-23T00:18:49;3.10;;;2.80;;
20423;SDS011;10371;49.042;8.002;2023-03-23T00:19:53;2.80;;;2.60;;
20423;SDS011;10371;49.042;8.002;2023-03-23T00:20:55;2.60;;;2.30;;
20423;SDS011;10371;49.042;8.002;2023-03-23T00:21:56;2.80;;;2.53;;
20423;SDS011;10371;49.042;8.002;2023-03-23T00:22:56;2.95;;;2.55;;
20423;SDS011;10371;49.042;8.002;2023-03-23T00:24:04;2.10;;;2.00;;
20423;SDS011;10371;49.042;8.002;2023-03-23T00:25:10;2.30;;;2.10;;
20423;SDS011;10371;49.042;8.002;2023-03-23T00:26:11;2.10;;;1.92;;
20423;SDS011;10371;49.042;8.002;2023-03-23T00:27:11;2.17;;;2.08;;
20423;SDS011;10371;49.042;8.002;2023-03-23T00:28:15;2.30;;;1.70;;
20423;SDS011;10371;49.042;8.002;2023-03-23T00:29:17;4.47;;;2.20;;
20423;SDS011;10371;49.042;8.002;2023-03-23T00:30:21;3.45;;;2.30;;
20423;SDS011;10371;49.042;8.002;2023-03-23T00:31:22;3.70;;;2.00;;
20423;SDS011;10371;49.042;8.002;2023-03-23T00:32:23;6.97;;;2.50;;
20423;SDS011;10371;49.042;8.002;2023-03-23T00:33:27;3.17;;;2.22;;
20423;SDS011;10371;49.042;8.002;2023-03-23T00:34:30;5.63;;;2.10;;
20423;SDS011;10371;49.042;8.002;2023-03-23T00:35:32;5.10;;;2.20;;
20423;SDS011;10371;49.042;8.002;2023-03-23T00:36:33;4.20;;;2.10;;
20423;SDS011;10371;49.042;8.002;2023-03-23T00:37:35;3.00;;;1.80;;
20423;SDS011;10371;49.042;8.002;2023-03-23T00:38:36;3.17;;;1.73;;
20423;SDS011;10371;49.042;8.002;2023-03-23T00:39:37;3.28;;;1.80;;
20423;SDS011;10371;49.042;8.002;2023-03-23T00:40:38;4.15;;;1.95;;
20423;SDS011;10371;49.042;8.002;2023-03-23T00:41:38;1.90;;;1.70;;
20423;SDS011;10371;49.042;8.002;2023-03-23T00:42:38;5.07;;;1.90;;
20423;SDS011;10371;49.042;8.002;2023-03-23T00:43:39;2.72;;;1.80;;
20423;SDS011;10371;49.042;8.002;2023-03-23T00:44:39;3.47;;;1.70;;
20423;SDS011;10371;49.042;8.002;2023-03-23T00:45:39;3.75;;;1.80;;
20423;SDS011;10371;49.042;8.002;2023-03-23T00:46:40;2.78;;;1.95;;
20423;SDS011;10371;49.042;8.002;2023-03-23T00:47:44;2.22;;;1.70;;
20423;SDS011;10371;49.042;8.002;2023-03-23T00:48:50;3.72;;;1.90;;
20423;SDS011;10371;49.042;8.002;2023-03-23T00:49:51;4.75;;;1.85;;
20423;SDS011;10371;49.042;8.002;2023-03-23T00:50:52;3.25;;;2.00;;
20423;SDS011;10371;49.042;8.002;2023-03-23T00:51:54;4.63;;;1.70;;
20423;SDS011;10371;49.042;8.002;2023-03-23T00:52:56;5.32;;;1.88;;
20423;SDS011;10371;49.042;8.002;2023-03-23T00:53:56;3.25;;;1.90;;
20423;SDS011;10371;49.042;8.002;2023-03-23T00:54:56;2.17;;;1.60;;
20423;SDS011;10371;49.042;8.002;2023-03-23T00:55:57;4.20;;;1.63;;
20423;SDS011;10371;49.042;8.002;2023-03-23T00:56:57;2.00;;;1.80;;
20423;SDS011;10371;49.042;8.002;2023-03-23T00:57:58;2.63;;;1.70;;
20423;SDS011;10371;49.042;8.002;2023-03-23T00:58:58;2.65;;;1.42;;
20423;SDS011;10371;49.042;8.002;2023-03-23T00:59:58;2.90;;;1.80;;
20423;SDS011;10371;49.042;8.002;2023-03-23T01:00:58;3.28;;;1.88;;
20423;SDS011;10371;49.042;8.002;2023-03-23T01:01:59;1.80;;;1.30;;
20423;SDS011;10371;49.042;8.002;2023-03-23T01:02:59;1.50;;;1.40;;
20423;SDS011;10371;49.042;8.002;2023-03-23T01:04:00;2.92;;;1.70;;
20423;SDS011;10371;49.042;8.002;2023-03-23T01:05:04;2.97;;;1.90;;
20423;SDS011;10371;49.042;8.002;2023-03-23T01:06:05;3.22;;;1.70;;
20423;SDS011;10371;49.042;8.002;2023-03-23T01:07:08;2.08;;;1.50;;
20423;SDS011;10371;49.042;8.002;2023-03-23T01:08:08;2.80;;;1.60;;
20423;SDS011;10371;49.042;8.002;2023-03-23T01:09:11;2.40;;;1.80;;
20423;SDS011;10371;49.042;8.002;2023-03-23T01:10:16;1.75;;;1.65;;
20423;SDS011;10371;49.042;8.002;2023-03-23T01:11:17;2.13;;;1.67;;
20423;SDS011;10371;49.042;8.002;2023-03-23T01:12:17;2.30;;;1.98;;
20423;SDS011;10371;49.042;8.002;2023-03-23T01:13:19;1.67;;;1.58;;
20423;SDS011;10371;49.042;8.002;2023-03-23T01:14:19;2.03;;;1.83;;
20423;SDS011;10371;49.042;8.002;2023-03-23T01:15:20;2.70;;;1.70;;
20423;SDS011;10371;49.042;8.002;2023-03-23T01:16:21;1.75;;;1.65;;
20423;SDS011;10371;49.042;8.002;2023-03-23T01:17:22;2.33;;;1.67;;
20423;SDS011;10371;49.042;8.002;2023-03-23T01:18:22;1.88;;;1.60;;
20423;SDS011;10371;49.042;8.002;2023-03-23T01:19:22;2.05;;;1.60;;
20423;SDS011;10371;49.042;8.002;2023-03-23T01:20:23;2.17;;;1.70;;
20423;SDS011;10371;49.042;8.002;2023-03-23T01:21:24;1.80;;;1.70;;
20423;SDS011;10371;49.042;8.002;2023-03-23T01:22:25;1.80;;;1.60;;
20423;SDS011;10371;49.042;8.002;2023-03-23T01:23:25;1.60;;;1.50;;
20423;SDS011;10371;49.042;8.002;2023-03-23T01:24:26;3.17;;;1.88;;
20423;SDS011;10371;49.042;8.002;2023-03-23T01:25:30;2.58;;;1.60;;
20423;SDS011;10371;49.042;8.002;2023-03-23T01:26:31;3.75;;;1.70;;
20423;SDS011;10371;49.042;8.002;2023-03-23T01:27:32;1.58;;;1.48;;
20423;SDS011;10371;49.042;8.002;2023-03-23T01:28:33;2.00;;;1.80;;
20423;SDS011;10371;49.042;8.002;2023-03-23T01:29:34;3.25;;;1.70;;
20423;SDS011;10371;49.042;8.002;2023-03-23T01:30:35;1.70;;;1.60;;
20423;SDS011;10371;49.042;8.002;2023-03-23T01:31:36;2.78;;;1.55;;
20423;SDS011;10371;49.042;8.002;2023-03-23T01:32:36;2.53;;;1.83;;
20423;SDS011;10371;49.042;8.002;2023-03-23T01:33:37;2.85;;;1.77;;
20423;SDS011;10371;49.042;8.002;2023-03-23T01:34:38;2.00;;;1.90;;
20423;SDS011;10371;49.042;8.002;2023-03-23T01:35:39;1.80;;;1.70;;
20423;SDS011;10371;49.042;8.002;2023-03-23T01:36:39;1.90;;;1.70;;
20423;SDS011;10371;49.042;8.002;2023-03-23T01:37:40;1.75;;;1.65;;
20423;SDS011;10371;49.042;8.002;2023-03-23T01:38:41;2.40;;;1.73;;
20423;SDS011;10371;49.042;8.002;2023-03-23T01:39:42;2.00;;;1.83;;
20423;SDS011;10371;49.042;8.002;2023-03-23T01:40:43;1.80;;;1.70;;
20423;SDS011;10371;49.042;8.002;2023-03-23T01:41:43;2.08;;;1.70;;
20423;SDS011;10371;49.042;8.002;2023-03-23T01:42:43;2.75;;;1.70;;
20423;SDS011;10371;49.042;8.002;2023-03-23T01:46:19;2.08;;;1.70;;
20423;SDS011;10371;49.042;8.002;2023-03-23T01:47:22;2.72;;;2.10;;
20423;SDS011;10371;49.042;8.002;2023-03-23T01:48:27;2.17;;;1.85;;
20423;SDS011;10371;49.042;8.002;2023-03-23T01:49:33;1.50;;;1.40;;
20423;SDS011;10371;49.042;8.002;2023-03-23T01:50:40;4.60;;;1.63;;
20423;SDS011;10371;49.042;8.002;2023-03-23T01:51:48;1.80;;;1.60;;
20423;SDS011;10371;49.042;8.002;2023-03-23T01:52:54;1.60;;;1.50;;
20423;SDS011;10371;49.042;8.002;2023-03-23T01:53:58;2.78;;;1.77;;
20423;SDS011;10371;49.042;8.002;2023-03-23T01:55:02;2.13;;;1.92;;
20423;SDS011;10371;49.042;8.002;2023-03-23T01:56:03;2.15;;;1.80;;
20423;SDS011;10371;49.042;8.002;2023-03-23T01:57:07;1.63;;;1.52;;
20423;SDS011;10371;49.042;8.002;2023-03-23T01:58:11;1.45;;;1.40;;
20423;SDS011;10371;49.042;8.002;2023-03-23T01:59:12;1.70;;;1.60;;
20423;SDS011;10371;49.042;8.002;2023-03-23T02:00:13;1.83;;;1.73;;
20423;SDS011;10371;49.042;8.002;2023-03-23T02:01:15;1.73;;;1.60;;
20423;SDS011;10371;49.042;8.002;2023-03-23T02:02:16;1.70;;;1.58;;
20423;SDS011;10371;49.042;8.002;2023-03-23T02:03:18;1.73;;;1.60;;
20423;SDS011;10371;49.042;8.002;2023-03-23T02:04:19;1.50;;;1.40;;
20423;SDS011;10371;49.042;8.002;2023-03-23T02:05:26;2.67;;;1.95;;
20423;SDS011;10371;49.042;8.002;2023-03-23T02:06:31;1.73;;;1.63;;
20423;SDS011;10371;49.042;8.002;2023-03-23T02:07:32;2.90;;;1.63;;
20423;SDS011;10371;49.042;8.002;2023-03-23T02:08:33;2.33;;;1.55;;
20423;SDS011;10371;49.042;8.002;2023-03-23T02:09:35;2.15;;;1.95;;
20423;SDS011;10371;49.042;8.002;2023-03-23T02:10:36;3.22;;;2.17;;
20423;SDS011;10371;49.042;8.002;2023-03-23T02:11:37;3.38;;;2.20;;
20423;SDS011;10371;49.042;8.002;2023-03-23T02:12:37;3.47;;;2.30;;
20423;SDS011;10371;49.042;8.002;2023-03-23T02:13:38;2.53;;;2.00;;
20423;SDS011;10371;49.042;8.002;2023-03-23T02:14:38;2.80;;;2.22;;
20423;SDS011;10371;49.042;8.002;2023-03-23T02:17:02;4.10;;;1.67;;
20423;SDS011;10371;49.042;8.002;2023-03-23T02:18:13;2.08;;;1.88;;
20423;SDS011;10371;49.042;8.002;2023-03-23T02:28:04;2.10;;;1.90;;
20423;SDS011;10371;49.042;8.002;2023-03-23T02:35:11;1.80;;;1.70;;
20423;SDS011;10371;49.042;8.002;2023-03-23T02:36:19;2.42;;;1.80;;
20423;SDS011;10371;49.042;8.002;2023-03-23T02:37:28;1.85;;;1.75;;
20423;SDS011;10371;49.042;8.002;2023-03-23T02:39:56;2.75;;;2.10;;
20423;SDS011;10371;49.042;8.002;2023-03-23T02:41:07;2.53;;;1.52;;
20423;SDS011;10371;49.042;8.002;2023-03-23T02:42:09;2.15;;;1.95;;
20423;SDS011;10371;49.042;8.002;2023-03-23T02:43:13;3.55;;;1.80;;
20423;SDS011;10371;49.042;8.002;2023-03-23T02:44:16;2.45;;;2.10;;
20423;SDS011;10371;49.042;8.002;2023-03-23T02:45:17;3.08;;;2.00;;
20423;SDS011;10371;49.042;8.002;2023-03-23T02:46:20;2.30;;;2.10;;
20423;SDS011;10371;49.042;8.002;2023-03-23T02:47:23;2.63;;;2.08;;
20423;SDS011;10371;49.042;8.002;2023-03-23T02:48:28;2.85;;;2.20;;
20423;SDS011;10371;49.042;8.002;2023-03-23T02:49:31;2.22;;;1.77;;
20423;SDS011;10371;49.042;8.002;2023-03-23T02:50:35;2.65;;;1.80;;
20423;SDS011;10371;49.042;8.002;2023-03-23T02:51:37;2.20;;;1.90;;
20423;SDS011;10371;49.042;8.002;2023-03-23T02:52:40;2.47;;;2.28;;
20423;SDS011;10371;49.042;8.002;2023-03-23T02:53:43;3.80;;;2.30;;
20423;SDS011;10371;49.042;8.002;2023-03-23T02:54:46;2.97;;;2.38;;
20423;SDS011;10371;49.042;8.002;2023-03-23T02:55:48;2.88;;;2.05;;
20423;SDS011;10371;49.042;8.002;2023-03-23T02:56:53;2.70;;;2.10;;
20423;SDS011;10371;49.042;8.002;2023-03-23T02:57:54;2.78;;;2.33;;
20423;SDS011;10371;49.042;8.002;2023-03-23T02:58:55;2.88;;;2.40;;
20423;SDS011;10371;49.042;8.002;2023-03-23T02:59:55;4.82;;;2.20;;
20423;SDS011;10371;49.042;8.002;2023-03-23T03:00:56;4.00;;;2.83;;
20423;SDS011;10371;49.042;8.002;2023-03-23T03:02:03;3.33;;;2.13;;
20423;SDS011;10371;49.042;8.002;2023-03-23T03:03:09;3.70;;;2.30;;
20423;SDS011;10371;49.042;8.002;2023-03-23T03:04:14;3.10;;;2.53;;
20423;SDS011;10371;49.042;8.002;2023-03-23T03:09:26;2.55;;;2.35;;
20423;SDS011;10371;49.042;8.002;2023-03-23T03:11:56;2.30;;;2.10;;
20423;SDS011;10371;49.042;8.002;2023-03-23T03:13:03;2.45;;;2.25;;
20423;SDS011;10371;49.042;8.002;2023-03-23T03:14:31;3.05;;;2.30;;
20423;SDS011;10371;49.042;8.002;2023-03-23T03:15:55;3.58;;;2.50;;
20423;SDS011;10371;49.042;8.002;2023-03-23T03:17:22;6.80;;;3.30;;
20423;SDS011;10371;49.042;8.002;2023-03-23T03:18:37;5.25;;;3.05;;
20423;SDS011;10371;49.042;8.002;2023-03-23T03:19:45;6.10;;;3.20;;
20423;SDS011;10371;49.042;8.002;2023-03-23T03:20:54;4.47;;;2.90;;
20423;SDS011;10371;49.042;8.002;2023-03-23T03:21:59;5.13;;;2.95;;
20423;SDS011;10371;49.042;8.002;2023-03-23T03:23:00;4.65;;;2.90;;
20423;SDS011;10371;49.042;8.002;2023-03-23T03:24:02;6.20;;;3.05;;
20423;SDS011;10371;49.042;8.002;2023-03-23T03:25:03;3.10;;;2.80;;
20423;SDS011;10371;49.042;8.002;2023-03-23T03:26:05;4.38;;;2.97;;
20423;SDS011;10371;49.042;8.002;2023-03-23T03:27:10;4.22;;;2.60;;
20423;SDS011;10371;49.042;8.002;2023-03-23T03:28:15;2.88;;;2.60;;
20423;SDS011;10371;49.042;8.002;2023-03-23T03:29:21;3.00;;;2.40;;
20423;SDS011;10371;49.042;8.002;2023-03-23T03:30:26;3.67;;;2.58;;
20423;SDS011;10371;49.042;8.002;2023-03-23T03:31:36;3.60;;;2.33;;
20423;SDS011;10371;49.042;8.002;2023-03-23T03:32:41;2.45;;;2.22;;
20423;SDS011;10371;49.042;8.002;2023-03-23T03:33:46;4.40;;;2.50;;
20423;SDS011;10371;49.042;8.002;2023-03-23T03:34:47;4.03;;;2.65;;
20423;SDS011;10371;49.042;8.002;2023-03-23T03:35:47;2.55;;;2.30;;
20423;SDS011;10371;49.042;8.002;2023-03-23T03:36:48;2.80;;;2.50;;
20423;SDS011;10371;49.042;8.002;2023-03-23T03:37:51;3.53;;;2.47;;
20423;SDS011;10371;49.042;8.002;2023-03-23T03:38:53;3.45;;;2.47;;
20423;SDS011;10371;49.042;8.002;2023-03-23T03:39:53;4.55;;;2.58;;
20423;SDS011;10371;49.042;8.002;2023-03-23T03:40:54;3.40;;;2.63;;
20423;SDS011;10371;49.042;8.002;2023-03-23T03:41:56;4.55;;;2.58;;
20423;SDS011;10371;49.042;8.002;2023-03-23T03:42:57;2.92;;;2.55;;
20423;SDS011;10371;49.042;8.002;2023-03-23T03:43:57;3.17;;;2.40;;
20423;SDS011;10371;49.042;8.002;2023-03-23T03:44:57;4.85;;;2.60;;
20423;SDS011;10371;49.042;8.002;2023-03-23T03:45:58;4.40;;;2.63;;
20423;SDS011;10371;49.042;8.002;2023-03-23T03:46:58;3.60;;;2.38;;
20423;SDS011;10371;49.042;8.002;2023-03-23T03:47:58;6.00;;;2.63;;
20423;SDS011;10371;49.042;8.002;2023-03-23T03:48:59;3.20;;;2.67;;
20423;SDS011;10371;49.042;8.002;2023-03-23T03:50:00;6.32;;;2.53;;
20423;SDS011;10371;49.042;8.002;2023-03-23T03:51:01;5.75;;;2.70;;
20423;SDS011;10371;49.042;8.002;2023-03-23T03:52:02;3.00;;;2.65;;
20423;SDS011;10371;49.042;8.002;2023-03-23T03:53:04;4.18;;;2.70;;
20423;SDS011;10371;49.042;8.002;2023-03-23T03:54:05;5.07;;;2.75;;
20423;SDS011;10371;49.042;8.002;2023-03-23T03:55:06;3.70;;;2.45;;
20423;SDS011;10371;49.042;8.002;2023-03-23T03:56:09;4.28;;;2.50;;
20423;SDS011;10371;49.042;8.002;2023-03-23T03:57:09;2.70;;;2.50;;
20423;SDS011;10371;49.042;8.002;2023-03-23T03:58:09;3.03;;;2.75;;
20423;SDS011;10371;49.042;8.002;2023-03-23T03:59:09;2.67;;;2.38;;
20423;SDS011;10371;49.042;8.002;2023-03-23T04:00:10;3.40;;;2.28;;
20423;SDS011;10371;49.042;8.002;2023-03-23T04:01:14;3.45;;;2.42;;
20423;SDS011;10371;49.042;8.002;2023-03-23T04:02:16;2.38;;;2.17;;
20423;SDS011;10371;49.042;8.002;2023-03-23T04:03:19;3.55;;;2.20;;
20423;SDS011;10371;49.042;8.002;2023-03-23T04:04:20;2.75;;;2.20;;
20423;SDS011;10371;49.042;8.002;2023-03-23T04:05:22;2.67;;;2.47;;
20423;SDS011;10371;49.042;8.002;2023-03-23T04:06:22;3.28;;;2.47;;
20423;SDS011;10371;49.042;8.002;2023-03-23T04:07:23;4.82;;;2.30;;
20423;SDS011;10371;49.042;8.002;2023-03-23T04:08:26;2.40;;;2.20;;
20423;SDS011;10371;49.042;8.002;2023-03-23T04:09:26;2.53;;;2.25;;
20423;SDS011;10371;49.042;8.002;2023-03-23T04:10:28;3.83;;;2.42;;
20423;SDS011;10371;49.042;8.002;2023-03-23T04:11:29;2.30;;;2.08;;
20423;SDS011;10371;49.042;8.002;2023-03-23T04:12:30;3.33;;;2.38;;
20423;SDS011;10371;49.042;8.002;2023-03-23T04:13:30;2.80;;;2.60;;
20423;SDS011;10371;49.042;8.002;2023-03-23T04:14:31;5.85;;;2.20;;
20423;SDS011;10371;49.042;8.002;2023-03-23T04:15:31;2.60;;;2.40;;
20423;SDS011;10371;49.042;8.002;2023-03-23T04:16:31;2.70;;;2.38;;
20423;SDS011;10371;49.042;8.002;2023-03-23T04:17:34;2.70;;;2.50;;
20423;SDS011;10371;49.042;8.002;2023-03-23T04:18:35;2.38;;;2.17;;
20423;SDS011;10371;49.042;8.002;2023-03-23T04:19:36;2.63;;;2.20;;
20423;SDS011;10371;49.042;8.002;2023-03-23T04:20:37;3.08;;;2.10;;
20423;SDS011;10371;49.042;8.002;2023-03-23T04:21:38;4.15;;;2.42;;
20423;SDS011;10371;49.042;8.002;2023-03-23T04:22:38;2.95;;;2.40;;
20423;SDS011;10371;49.042;8.002;2023-03-23T04:23:39;3.05;;;2.35;;
20423;SDS011;10371;49.042;8.002;2023-03-23T04:24:39;2.88;;;2.63;;
20423;SDS011;10371;49.042;8.002;2023-03-23T04:25:39;2.78;;;2.38;;
20423;SDS011;10371;49.042;8.002;2023-03-23T04:26:41;3.05;;;2.33;;
20423;SDS011;10371;49.042;8.002;2023-03-23T04:27:42;2.83;;;2.40;;
20423;SDS011;10371;49.042;8.002;2023-03-23T04:28:43;2.75;;;2.40;;
20423;SDS011;10371;49.042;8.002;2023-03-23T04:29:43;3.53;;;2.40;;
20423;SDS011;10371;49.042;8.002;2023-03-23T04:30:48;2.80;;;2.30;;
20423;SDS011;10371;49.042;8.002;2023-03-23T04:31:52;2.58;;;2.30;;
20423;SDS011;10371;49.042;8.002;2023-03-23T04:32:55;4.15;;;2.70;;
20423;SDS011;10371;49.042;8.002;2023-03-23T04:33:55;2.50;;;2.30;;
20423;SDS011;10371;49.042;8.002;2023-03-23T04:34:56;2.55;;;2.35;;
20423;SDS011;10371;49.042;8.002;2023-03-23T04:35:59;2.50;;;2.30;;
20423;SDS011;10371;49.042;8.002;2023-03-23T04:37:00;2.55;;;2.25;;
20423;SDS011;10371;49.042;8.002;2023-03-23T04:38:01;3.15;;;2.40;;
20423;SDS011;10371;49.042;8.002;2023-03-23T04:39:01;2.50;;;2.30;;
20423;SDS011;10371;49.042;8.002;2023-03-23T04:40:07;2.85;;;2.53;;
20423;SDS011;10371;49.042;8.002;2023-03-23T04:41:11;3.17;;;2.20;;
20423;SDS011;10371;49.042;8.002;2023-03-23T04:42:11;4.65;;;2.33;;
20423;SDS011;10371;49.042;8.002;2023-03-23T04:43:13;3.42;;;2.65;;
20423;SDS011;10371;49.042;8.002;2023-03-23T04:44:14;3.03;;;2.40;;
20423;SDS011;10371;49.042;8.002;2023-03-23T04:45:19;2.47;;;2.28;;
20423;SDS011;10371;49.042;8.002;2023-03-23T04:46:21;4.10;;;2.63;;
20423;SDS011;10371;49.042;8.002;2023-03-23T04:47:21;2.40;;;2.20;;
20423;SDS011;10371;49.042;8.002;2023-03-23T04:48:23;2.53;;;2.33;;
20423;SDS011;10371;49.042;8.002;2023-03-23T04:49:26;2.53;;;2.33;;
20423;SDS011;10371;49.042;8.002;2023-03-23T04:50:28;3.20;;;2.58;;
20423;SDS011;10371;49.042;8.002;2023-03-23T04:51:30;3.00;;;2.40;;
20423;SDS011;10371;49.042;8.002;2023-03-23T04:52:31;4.15;;;2.33;;
20423;SDS011;10371;49.042;8.002;2023-03-23T04:53:31;2.78;;;2.40;;
20423;SDS011;10371;49.042;8.002;2023-03-23T04:54:32;2.80;;;2.50;;
20423;SDS011;10371;49.042;8.002;2023-03-23T04:55:34;3.05;;;2.40;;
20423;SDS011;10371;49.042;8.002;2023-03-23T04:56:36;4.25;;;2.47;;
20423;SDS011;10371;49.042;8.002;2023-03-23T04:57:36;3.53;;;2.30;;
20423;SDS011;10371;49.042;8.002;2023-03-23T04:58:37;2.67;;;2.08;;
20423;SDS011;10371;49.042;8.002;2023-03-23T04:59:39;2.20;;;1.80;;
20423;SDS011;10371;49.042;8.002;2023-03-23T05:00:40;3.92;;;2.08;;
20423;SDS011;10371;49.042;8.002;2023-03-23T05:01:43;2.35;;;1.90;;
20423;SDS011;10371;49.042;8.002;2023-03-23T05:02:45;2.22;;;2.05;;
20423;SDS011;10371;49.042;8.002;2023-03-23T05:03:52;2.42;;;1.88;;
20423;SDS011;10371;49.042;8.002;2023-03-23T05:04:53;2.85;;;1.90;;
20423;SDS011;10371;49.042;8.002;2023-03-23T05:05:53;1.77;;;1.67;;
20423;SDS011;10371;49.042;8.002;2023-03-23T05:06:54;2.65;;;1.90;;
20423;SDS011;10371;49.042;8.002;2023-03-23T05:07:54;1.80;;;1.70;;
20423;SDS011;10371;49.042;8.002;2023-03-23T05:08:55;3.70;;;1.70;;
20423;SDS011;10371;49.042;8.002;2023-03-23T05:09:55;2.42;;;1.70;;
20423;SDS011;10371;49.042;8.002;2023-03-23T05:10:56;2.40;;;1.80;;
20423;SDS011;10371;49.042;8.002;2023-03-23T05:12:02;1.80;;;1.70;;
20423;SDS011;10371;49.042;8.002;2023-03-23T05:13:04;2.15;;;1.60;;
20423;SDS011;10371;49.042;8.002;2023-03-23T05:14:04;1.80;;;1.70;;
20423;SDS011;10371;49.042;8.002;2023-03-23T05:15:05;2.00;;;1.80;;
20423;SDS011;10371;49.042;8.002;2023-03-23T05:16:07;1.77;;;1.33;;
20423;SDS011;10371;49.042;8.002;2023-03-23T05:17:07;1.67;;;1.58;;
20423;SDS011;10371;49.042;8.002;2023-03-23T05:18:08;1.88;;;1.70;;
20423;SDS011;10371;49.042;8.002;2023-03-23T05:19:10;1.60;;;1.50;;
20423;SDS011;10371;49.042;8.002;2023-03-23T05:20:11;1.98;;;1.60;;
20423;SDS011;10371;49.042;8.002;2023-03-23T05:21:14;1.70;;;1.60;;
20423;SDS011;10371;49.042;8.002;2023-03-23T05:22:14;2.40;;;2.20;;
20423;SDS011;10371;49.042;8.002;2023-03-23T05:23:15;1.60;;;1.50;;
20423;SDS011;10371;49.042;8.002;2023-03-23T05:24:15;2.17;;;1.50;;
20423;SDS011;10371;49.042;8.002;2023-03-23T05:25:16;1.70;;;1.60;;
20423;SDS011;10371;49.042;8.002;2023-03-23T05:26:18;1.17;;;1.17;;
20423;SDS011;10371;49.042;8.002;2023-03-23T05:27:19;1.60;;;1.50;;
20423;SDS011;10371;49.042;8.002;2023-03-23T05:28:20;1.50;;;1.40;;
20423;SDS011;10371;49.042;8.002;2023-03-23T05:29:21;2.40;;;1.67;;
20423;SDS011;10371;49.042;8.002;2023-03-23T05:30:23;1.83;;;1.73;;
20423;SDS011;10371;49.042;8.002;2023-03-23T05:31:24;2.20;;;1.60;;
20423;SDS011;10371;49.042;8.002;2023-03-23T05:32:25;1.55;;;1.45;;
20423;SDS011;10371;49.042;8.002;2023-03-23T05:33:29;1.75;;;1.60;;
20423;SDS011;10371;49.042;8.002;2023-03-23T05:34:29;1.70;;;1.60;;
20423;SDS011;10371;49.042;8.002;2023-03-23T05:35:32;3.05;;;1.80;;
20423;SDS011;10371;49.042;8.002;2023-03-23T05:36:32;1.67;;;1.58;;
20423;SDS011;10371;49.042;8.002;2023-03-23T05:37:32;2.33;;;1.80;;
20423;SDS011;10371;49.042;8.002;2023-03-23T05:38:33;2.20;;;1.55;;
20423;SDS011;10371;49.042;8.002;2023-03-23T05:39:33;3.58;;;1.90;;
20423;SDS011;10371;49.042;8.002;2023-03-23T05:40:34;3.45;;;1.90;;
20423;SDS011;10371;49.042;8.002;2023-03-23T05:41:34;1.70;;;1.60;;
20423;SDS011;10371;49.042;8.002;2023-03-23T05:42:35;1.85;;;1.70;;
20423;SDS011;10371;49.042;8.002;2023-03-23T05:43:36;3.28;;;1.85;;
20423;SDS011;10371;49.042;8.002;2023-03-23T05:44:36;1.98;;;1.70;;
20423;SDS011;10371;49.042;8.002;2023-03-23T05:45:36;3.70;;;2.10;;
20423;SDS011;10371;49.042;8.002;2023-03-23T05:46:37;2.15;;;1.60;;
20423;SDS011;10371;49.042;8.002;2023-03-23T05:47:38;3.70;;;1.80;;
20423;SDS011;10371;49.042;8.002;2023-03-23T05:48:39;2.55;;;1.67;;
20423;SDS011;10371;49.042;8.002;2023-03-23T05:49:40;1.88;;;1.67;;
20423;SDS011;10371;49.042;8.002;2023-03-23T05:50:40;3.38;;;1.80;;
20423;SDS011;10371;49.042;8.002;2023-03-23T05:51:40;1.27;;;1.27;;
20423;SDS011;10371;49.042;8.002;2023-03-23T05:52:41;1.52;;;1.42;;
20423;SDS011;10371;49.042;8.002;2023-03-23T05:53:41;2.10;;;1.63;;
20423;SDS011;10371;49.042;8.002;2023-03-23T05:54:41;1.77;;;1.67;;
20423;SDS011;10371;49.042;8.002;2023-03-23T05:55:42;1.50;;;1.40;;
20423;SDS011;10371;49.042;8.002;2023-03-23T05:56:42;2.55;;;1.63;;
20423;SDS011;10371;49.042;8.002;2023-03-23T05:57:42;1.83;;;1.70;;
20423;SDS011;10371;49.042;8.002;2023-03-23T05:58:43;1.77;;;1.67;;
20423;SDS011;10371;49.042;8.002;2023-03-23T05:59:43;2.08;;;1.88;;
20423;SDS011;10371;49.042;8.002;2023-03-23T06:00:44;3.35;;;1.63;;
20423;SDS011;10371;49.042;8.002;2023-03-23T06:01:46;2.35;;;2.05;;
20423;SDS011;10371;49.042;8.002;2023-03-23T06:02:47;2.22;;;1.83;;
20423;SDS011;10371;49.042;8.002;2023-03-23T06:03:48;2.75;;;2.00;;
20423;SDS011;10371;49.042;8.002;2023-03-23T06:04:51;2.05;;;1.85;;
20423;SDS011;10371;49.042;8.002;2023-03-23T06:05:57;1.70;;;1.60;;
20423;SDS011;10371;49.042;8.002;2023-03-23T06:07:01;1.77;;;1.60;;
20423;SDS011;10371;49.042;8.002;2023-03-23T06:08:02;1.92;;;1.77;;
20423;SDS011;10371;49.042;8.002;2023-03-23T06:09:03;1.70;;;1.50;;
20423;SDS011;10371;49.042;8.002;2023-03-23T06:10:06;1.70;;;1.60;;
20423;SDS011;10371;49.042;8.002;2023-03-23T06:11:07;1.70;;;1.60;;
20423;SDS011;10371;49.042;8.002;2023-03-23T06:12:08;2.08;;;1.55;;
20423;SDS011;10371;49.042;8.002;2023-03-23T06:13:09;1.85;;;1.60;;
20423;SDS011;10371;49.042;8.002;2023-03-23T06:14:10;2.10;;;1.70;;
20423;SDS011;10371;49.042;8.002;2023-03-23T06:15:12;1.83;;;1.70;;
20423;SDS011;10371;49.042;8.002;2023-03-23T06:16:12;3.13;;;1.75;;
20423;SDS011;10371;49.042;8.002;2023-03-23T06:17:14;1.67;;;1.58;;
20423;SDS011;10371;49.042;8.002;2023-03-23T06:18:15;2.65;;;1.95;;
20423;SDS011;10371;49.042;8.002;2023-03-23T06:19:16;1.90;;;1.80;;
20423;SDS011;10371;49.042;8.002;2023-03-23T06:20:16;2.95;;;1.88;;
20423;SDS011;10371;49.042;8.002;2023-03-23T06:21:16;1.90;;;1.52;;
20423;SDS011;10371;49.042;8.002;2023-03-23T06:22:21;1.60;;;1.50;;
20423;SDS011;10371;49.042;8.002;2023-03-23T06:23:22;2.28;;;1.55;;
20423;SDS011;10371;49.042;8.002;2023-03-23T06:24:22;1.90;;;1.67;;
20423;SDS011;10371;49.042;8.002;2023-03-23T06:25:22;2.05;;;1.70;;
20423;SDS011;10371;49.042;8.002;2023-03-23T06:26:24;2.05;;;1.50;;
20423;SDS011;10371;49.042;8.002;2023-03-23T06:27:28;1.70;;;1.60;;
20423;SDS011;10371;49.042;8.002;2023-03-23T06:28:29;2.00;;;1.90;;
20423;SDS011;10371;49.042;8.002;2023-03-23T06:29:29;1.77;;;1.63;;
20423;SDS011;10371;49.042;8.002;2023-03-23T06:30:29;1.77;;;1.35;;
20423;SDS011;10371;49.042;8.002;2023-03-23T06:31:30;1.50;;;1.40;;
20423;SDS011;10371;49.042;8.002;2023-03-23T06:32:33;2.42;;;1.60;;
20423;SDS011;10371;49.042;8.002;2023-03-23T06:33:34;1.40;;;1.30;;
20423;SDS011;10371;49.042;8.002;2023-03-23T06:34:36;1.65;;;1.33;;
20423;SDS011;10371;49.042;8.002;2023-03-23T06:35:36;1.48;;;1.38;;
20423;SDS011;10371;49.042;8.002;2023-03-23T06:36:36;1.60;;;1.50;;
20423;SDS011;10371;49.042;8.002;2023-03-23T06:37:38;1.45;;;1.27;;
20423;SDS011;10371;49.042;8.002;2023-03-23T06:38:38;1.70;;;1.52;;
20423;SDS011;10371;49.042;8.002;2023-03-23T06:39:38;1.88;;;1.77;;